首页
METAR-TAF:

METAR-TAF

机场 :

霍巴特國際機場

荷巴特, 澳大利亚

纬度: 42-50S, 经度: 147-29E, 海拔: 4米

当前天气观测

该预报发布于39分钟前的11:30 UTC
风速9节,风向
温度 13°C
湿度 51%
气压 1012 hPa
能见度10公里或以上
1500米以下无云,无积雨云

METAR: YMHB 231130Z 35009KT CAVOK 13/03 Q1012

时间: 22:09 (12:09 UTC)

预报

该预报发布于45分钟前的11:24 UTC
预报有效从23日的 12点(UTC)到 24日的 12点(UTC)
风速12节,风向
能见度10公里或以上
1500米以下无云,无积雨云
从 24日的 0200点(UTC)
风速15节,风向,有时为25节阵风
能见度10公里或以上
1500米以下无云,无积雨云
从 24日的 0800点(UTC)
风速12节,风向
能见度10公里或以上
1500米以下无云,无积雨云

TAF: YMHB 231124Z 2312/2412 35012KT CAVOK FM240200 36015G25KT CAVOK FM240800 36012KT CAVOK

超过4000个机场的气象观测和天气预报(METAR&TAF报告)。

可查询的气象台以黄色和红色小点在地图上表示。

将鼠标移到小点上方,可查看气象台名称。

然后点击查看天气观测和预报。

如需切换地图:点击带黑十字的绿色按钮放大地图;点击带横线的绿色按钮缩小地图;或者点击绿色箭头查看邻近地区的地图。


METAR-TAF: